createdAt,value
2018-05-14T00:00:23.596Z,53.96
2018-05-14T00:02:01.735Z,54.61
2018-05-14T00:03:39.801Z,54.83
2018-05-14T00:05:18.918Z,54.94
2018-05-14T00:06:57.076Z,55.42
2018-05-14T00:08:33.018Z,55.44
2018-05-14T00:10:11.135Z,55.81
2018-05-14T00:11:49.246Z,56.06
2018-05-14T00:13:29.462Z,56.18
2018-05-14T00:15:06.849Z,55.85
2018-05-14T00:16:45.043Z,55.94
2018-05-14T00:18:22.044Z,55.18
2018-05-14T00:20:01.908Z,54.88
2018-05-14T00:21:40.707Z,54.83
2018-05-14T00:23:18.556Z,54.87
2018-05-14T00:24:55.136Z,54.92
2018-05-14T00:26:32.353Z,53.65
2018-05-14T00:28:10.136Z,52.79
2018-05-14T00:29:49.422Z,52.47
2018-05-14T00:31:27.725Z,52.39
2018-05-14T00:33:06.163Z,52.44
2018-05-14T00:36:25.435Z,54.13
2018-05-14T00:38:06.221Z,54.85
2018-05-14T00:39:47.205Z,55.28
2018-05-14T00:41:25.680Z,55.12
2018-05-14T00:43:03.163Z,54.86
2018-05-14T00:44:40.859Z,53.57
2018-05-14T00:46:18.606Z,53.92
2018-05-14T00:47:59.475Z,54.55
2018-05-14T00:49:36.822Z,54.94
2018-05-14T00:51:15.091Z,53.77
2018-05-14T00:52:53.009Z,53.52
2018-05-14T00:54:31.899Z,55.27
2018-05-14T00:56:10.268Z,55.51
2018-05-14T00:57:47.345Z,54.96
2018-05-14T00:59:26.668Z,55.45
2018-05-14T01:01:05.031Z,55.46
2018-05-14T01:02:44.213Z,53.70
2018-05-14T01:04:21.338Z,54.01
2018-05-14T01:06:00.555Z,54.31
2018-05-14T01:07:37.296Z,54.94
2018-05-14T01:09:16.908Z,55.21
2018-05-14T01:10:53.632Z,55.39
2018-05-14T01:12:30.246Z,54.75
2018-05-14T01:14:10.207Z,55.99
2018-05-14T01:15:48.584Z,56.39
2018-05-14T01:17:27.011Z,56.95
2018-05-14T01:19:05.710Z,56.72
2018-05-14T01:20:42.760Z,56.08
2018-05-14T01:22:19.433Z,54.63
2018-05-14T01:23:57.707Z,54.36
2018-05-14T01:25:36.034Z,54.33
2018-05-14T01:27:15.544Z,53.34
2018-05-14T01:28:52.520Z,54.13
2018-05-14T01:30:30.660Z,53.04
2018-05-14T01:32:09.109Z,53.09
2018-05-14T01:33:47.712Z,52.38
2018-05-14T01:35:25.627Z,54.37
2018-05-14T01:37:04.817Z,55.16
2018-05-14T01:38:47.784Z,55.21
2018-05-14T01:40:25.719Z,55.53
2018-05-14T01:42:05.362Z,55.05
2018-05-14T01:43:45.269Z,54.91
2018-05-14T01:45:22.486Z,54.97
2018-05-14T01:47:00.494Z,55.02
2018-05-14T01:48:39.058Z,54.98
2018-05-14T01:50:18.102Z,55.38
2018-05-14T01:51:56.096Z,55.10
2018-05-14T01:53:33.061Z,55.27
2018-05-14T01:55:11.777Z,56.01
2018-05-14T01:56:50.461Z,56.59
2018-05-14T01:58:27.848Z,56.64
2018-05-14T02:00:06.953Z,53.77
2018-05-14T02:01:46.928Z,56.30
2018-05-14T02:03:24.688Z,56.12
2018-05-14T02:05:02.950Z,56.09
2018-05-14T02:06:39.995Z,56.64
2018-05-14T02:08:18.986Z,56.82
2018-05-14T02:09:57.421Z,56.49
2018-05-14T02:11:35.699Z,55.62
2018-05-14T02:13:14.445Z,55.74
2018-05-14T02:14:53.627Z,55.65
2018-05-14T02:16:31.518Z,55.27
2018-05-14T02:18:10.193Z,55.23
2018-05-14T02:19:47.798Z,54.91
2018-05-14T02:21:26.155Z,54.66
2018-05-14T02:23:03.000Z,54.61
2018-05-14T02:24:42.235Z,54.36
2018-05-14T02:26:19.290Z,54.48
2018-05-14T02:27:57.295Z,54.75
2018-05-14T02:29:34.114Z,56.09
2018-05-14T02:31:12.302Z,56.62
2018-05-14T02:32:48.861Z,56.66
2018-05-14T02:34:28.763Z,57.11
2018-05-14T02:36:05.948Z,56.48
2018-05-14T02:37:43.907Z,57.19
2018-05-14T02:39:22.251Z,57.60
2018-05-14T02:41:00.700Z,55.75
2018-05-14T02:42:37.659Z,56.92
2018-05-14T02:44:15.922Z,57.08
2018-05-14T02:45:56.555Z,56.35
2018-05-14T02:47:37.356Z,56.41
2018-05-14T02:49:16.471Z,55.85
2018-05-14T02:50:56.642Z,55.89
2018-05-14T02:52:35.443Z,55.87
2018-05-14T02:54:14.049Z,55.77
2018-05-14T02:55:50.348Z,55.82
2018-05-14T02:57:29.545Z,55.65
2018-05-14T02:59:06.611Z,56.51
2018-05-14T03:00:48.765Z,56.16
2018-05-14T03:02:25.920Z,57.93
2018-05-14T03:04:03.641Z,58.23
2018-05-14T03:05:42.997Z,58.61
2018-05-14T03:07:22.943Z,58.87
2018-05-14T03:08:59.316Z,59.12
2018-05-14T03:10:37.720Z,59.20
2018-05-14T03:12:15.890Z,58.82
2018-05-14T03:13:54.997Z,59.17
2018-05-14T03:15:33.352Z,59.39
2018-05-14T03:17:10.845Z,58.63
2018-05-14T03:18:47.751Z,59.37
2018-05-14T03:20:30.049Z,59.50
2018-05-14T03:22:10.040Z,59.85
2018-05-14T03:23:50.359Z,59.60
2018-05-14T03:25:28.155Z,59.82
2018-05-14T03:27:05.751Z,60.02
2018-05-14T03:28:42.917Z,59.98
2018-05-14T03:30:20.352Z,60.08
2018-05-14T03:31:58.460Z,60.42
2018-05-14T03:33:37.433Z,60.20
2018-05-14T03:35:15.811Z,60.02
2018-05-14T03:36:53.136Z,60.10
2018-05-14T03:38:31.863Z,59.75
2018-05-14T03:40:11.356Z,59.59
2018-05-14T03:41:49.225Z,59.74
2018-05-14T03:43:27.085Z,59.95
2018-05-14T03:46:44.236Z,59.93
2018-05-14T03:48:23.808Z,59.99
2018-05-14T03:50:01.887Z,59.92
2018-05-14T03:51:40.104Z,60.05
2018-05-14T03:53:20.787Z,59.79
2018-05-14T03:54:59.468Z,60.01
2018-05-14T03:56:36.336Z,60.16
2018-05-14T03:58:31.668Z,59.97
2018-05-14T04:00:26.029Z,59.96
2018-05-14T04:02:30.273Z,59.47
2018-05-14T04:06:26.966Z,59.71
2018-05-14T04:08:04.499Z,59.36
2018-05-14T04:09:43.516Z,56.18
2018-05-14T04:11:25.261Z,54.03
2018-05-14T04:13:03.328Z,53.09
2018-05-14T04:14:41.527Z,53.52
2018-05-14T04:16:18.855Z,54.44
2018-05-14T04:17:57.085Z,53.55
2018-05-14T04:19:38.727Z,52.78
2018-05-14T04:21:17.405Z,52.79
2018-05-14T04:22:53.430Z,53.22
2018-05-14T04:24:31.675Z,53.61
2018-05-14T04:26:09.134Z,53.81
2018-05-14T04:27:47.400Z,52.34
2018-05-14T04:29:25.854Z,51.18
2018-05-14T04:31:04.623Z,50.76
2018-05-14T04:32:43.269Z,50.38
2018-05-14T04:34:20.697Z,51.03
2018-05-14T04:35:56.212Z,51.02
2018-05-14T04:37:35.307Z,51.10
2018-05-14T04:39:12.104Z,50.36
2018-05-14T04:40:55.599Z,50.12
2018-05-14T04:42:35.510Z,50.26
2018-05-14T04:44:12.039Z,50.60
2018-05-14T04:45:50.580Z,50.65
2018-05-14T04:47:30.656Z,51.06
2018-05-14T04:49:09.254Z,50.82
2018-05-14T04:50:46.540Z,50.28
2018-05-14T04:52:24.895Z,51.15
2018-05-14T04:54:00.901Z,50.69
2018-05-14T04:55:41.106Z,50.81
2018-05-14T04:57:21.819Z,51.18
2018-05-14T04:58:59.777Z,51.61
2018-05-14T05:00:36.491Z,50.37
2018-05-14T05:02:13.510Z,50.35
2018-05-14T05:03:50.575Z,50.29
2018-05-14T05:05:27.582Z,49.85
2018-05-14T05:07:07.167Z,50.44
2018-05-14T05:08:47.812Z,50.65
2018-05-14T05:10:26.971Z,50.97
2018-05-14T05:12:05.677Z,50.88
2018-05-14T05:13:44.768Z,50.87
2018-05-14T05:15:23.391Z,50.98
2018-05-14T05:17:03.248Z,51.09
2018-05-14T05:18:42.435Z,51.25
2018-05-14T05:20:20.420Z,51.15
2018-05-14T05:21:56.913Z,50.76
2018-05-14T05:23:34.111Z,51.05
2018-05-14T05:25:09.906Z,51.36
2018-05-14T05:26:45.094Z,51.25
2018-05-14T05:28:20.170Z,51.05
2018-05-14T05:29:58.444Z,51.14
2018-05-14T05:31:36.038Z,51.27
2018-05-14T05:33:13.071Z,51.20
2018-05-14T05:34:50.655Z,51.49
2018-05-14T05:36:30.329Z,51.39
2018-05-14T05:38:09.704Z,51.79
2018-05-14T05:39:47.930Z,51.58
2018-05-14T05:41:25.897Z,51.45
2018-05-14T05:43:03.628Z,51.57
2018-05-14T05:44:40.793Z,51.77
2018-05-14T05:46:21.941Z,52.00
2018-05-14T05:47:58.369Z,51.87
2018-05-14T05:49:35.807Z,52.35
2018-05-14T05:51:12.500Z,52.22
2018-05-14T05:52:52.788Z,52.25
2018-05-14T05:54:30.165Z,52.15
2018-05-14T05:56:07.015Z,52.27
2018-05-14T05:57:46.301Z,52.33
2018-05-14T05:59:23.941Z,52.46
2018-05-14T06:01:02.247Z,52.43
2018-05-14T06:02:37.773Z,52.56
2018-05-14T06:04:14.485Z,52.19
2018-05-14T06:05:51.878Z,52.23
2018-05-14T06:07:29.774Z,52.18
2018-05-14T06:09:07.667Z,51.70
2018-05-14T06:10:45.531Z,51.46
2018-05-14T06:12:25.177Z,51.20
2018-05-14T06:14:05.009Z,51.03
2018-05-14T06:15:45.076Z,50.66
2018-05-14T06:17:22.905Z,50.89
2018-05-14T06:19:02.020Z,50.72
2018-05-14T06:20:38.083Z,50.41
2018-05-14T06:22:15.962Z,49.84
2018-05-14T06:23:53.026Z,49.84
2018-05-14T06:25:31.051Z,49.14
2018-05-14T06:27:09.002Z,49.56
2018-05-14T06:28:46.283Z,49.34
2018-05-14T06:30:23.998Z,49.63
2018-05-14T06:32:02.215Z,49.20
2018-05-14T06:33:42.119Z,49.33
2018-05-14T06:35:18.535Z,49.18
2018-05-14T06:36:55.444Z,48.80
2018-05-14T06:38:32.112Z,48.71
2018-05-14T06:40:08.699Z,48.56
2018-05-14T06:41:45.989Z,48.32
2018-05-14T06:43:23.264Z,48.40
2018-05-14T06:45:00.358Z,48.46
2018-05-14T06:46:36.880Z,48.82
2018-05-14T06:48:15.524Z,47.54
2018-05-14T06:49:54.132Z,48.07
2018-05-14T06:51:31.668Z,47.63
2018-05-14T06:53:08.356Z,47.21
2018-05-14T06:54:47.426Z,47.31
2018-05-14T06:56:24.898Z,48.18
2018-05-14T06:58:02.475Z,46.85
2018-05-14T06:59:41.147Z,46.66
2018-05-14T07:01:19.267Z,47.12
2018-05-14T07:02:57.461Z,46.65
2018-05-14T07:04:36.127Z,46.41
2018-05-14T07:06:14.841Z,47.04
2018-05-14T07:07:52.562Z,47.43
2018-05-14T07:09:31.132Z,47.19
2018-05-14T07:11:09.723Z,47.38
2018-05-14T07:12:45.648Z,47.01
2018-05-14T07:14:23.169Z,47.17
2018-05-14T07:16:03.066Z,47.23
2018-05-14T07:17:40.873Z,46.54
2018-05-14T07:19:17.648Z,46.52
2018-05-14T07:20:56.750Z,46.67
2018-05-14T07:22:35.436Z,46.52
2018-05-14T07:24:13.069Z,47.77
2018-05-14T07:25:49.871Z,47.48
2018-05-14T07:27:27.304Z,46.64
2018-05-14T07:29:06.372Z,46.83
2018-05-14T07:30:44.841Z,47.06
2018-05-14T07:32:22.032Z,47.08
2018-05-14T07:34:00.303Z,46.19
2018-05-14T07:35:36.108Z,46.49
2018-05-14T07:37:14.526Z,46.19
2018-05-14T07:38:53.245Z,45.57
2018-05-14T07:40:31.110Z,45.83
2018-05-14T07:42:07.881Z,45.25
2018-05-14T07:43:46.304Z,45.52
2018-05-14T07:45:24.318Z,45.27
2018-05-14T07:47:01.942Z,45.70
2018-05-14T07:48:37.005Z,45.67
2018-05-14T07:50:13.981Z,45.16
2018-05-14T07:51:56.172Z,45.57
2018-05-14T07:53:33.426Z,44.45
2018-05-14T07:55:11.389Z,44.35
2018-05-14T07:56:49.622Z,44.30
2018-05-14T07:58:28.041Z,44.28
2018-05-14T08:00:06.079Z,44.49
2018-05-14T08:01:44.846Z,44.29
2018-05-14T08:03:22.848Z,45.00
2018-05-14T08:04:59.340Z,44.62
2018-05-14T08:06:37.679Z,43.73
2018-05-14T08:08:13.939Z,43.74
2018-05-14T08:09:51.028Z,44.26
2018-05-14T08:11:28.868Z,43.82
2018-05-14T08:13:08.398Z,43.53
2018-05-14T08:14:48.435Z,43.66
2018-05-14T08:16:26.684Z,43.47
2018-05-14T08:18:04.766Z,43.13
2018-05-14T08:19:42.914Z,43.13
2018-05-14T08:21:19.213Z,42.98
2018-05-14T08:22:55.256Z,42.88
2018-05-14T08:24:32.862Z,41.88
2018-05-14T08:26:12.237Z,42.37
2018-05-14T08:27:49.884Z,41.85
2018-05-14T08:29:27.764Z,41.77
2018-05-14T08:31:06.612Z,41.87
2018-05-14T08:32:43.651Z,41.60
2018-05-14T08:34:20.346Z,41.06
2018-05-14T08:35:57.135Z,40.83
2018-05-14T08:37:36.393Z,40.80
2018-05-14T08:39:13.847Z,41.47
2018-05-14T08:40:49.662Z,40.27
2018-05-14T08:42:28.515Z,39.07
2018-05-14T08:44:06.170Z,39.54
2018-05-14T08:45:42.516Z,39.17
2018-05-14T08:47:22.155Z,39.22
2018-05-14T08:49:00.414Z,39.71
2018-05-14T08:50:36.572Z,39.58
2018-05-14T08:52:15.265Z,39.27
2018-05-14T08:53:53.835Z,39.51
2018-05-14T08:55:32.318Z,38.96
2018-05-14T08:57:09.069Z,39.31
2018-05-14T08:58:46.685Z,38.83
2018-05-14T09:00:22.961Z,39.28
2018-05-14T09:02:00.136Z,38.23
2018-05-14T09:03:38.250Z,38.12
2018-05-14T09:05:15.800Z,37.66
2018-05-14T09:06:55.471Z,37.91
2018-05-14T09:08:34.842Z,38.65
2018-05-14T09:10:14.611Z,38.75
2018-05-14T09:11:59.007Z,38.80
2018-05-14T09:13:38.884Z,37.87
2018-05-14T09:15:15.558Z,38.27
2018-05-14T09:16:52.937Z,38.06
2018-05-14T09:18:32.164Z,37.90
2018-05-14T09:20:08.258Z,38.22
2018-05-14T09:21:45.378Z,37.87
2018-05-14T09:23:23.550Z,38.34
2018-05-14T09:25:01.263Z,37.70
2018-05-14T09:26:39.732Z,38.08
2018-05-14T09:28:15.678Z,37.86
2018-05-14T09:29:56.093Z,37.55
2018-05-14T09:31:34.361Z,36.97
2018-05-14T09:33:13.439Z,37.21
2018-05-14T09:34:53.033Z,37.86
2018-05-14T09:36:30.659Z,37.84
2018-05-14T09:38:07.267Z,36.25
2018-05-14T09:39:44.381Z,36.60
2018-05-14T09:41:20.267Z,36.61
2018-05-14T09:42:59.433Z,36.53
2018-05-14T09:44:36.821Z,36.13
2018-05-14T09:46:15.337Z,36.11
2018-05-14T09:47:53.828Z,36.74
2018-05-14T09:49:30.466Z,35.23
2018-05-14T09:51:07.815Z,36.40
2018-05-14T09:52:43.883Z,36.78
2018-05-14T09:54:21.551Z,35.53
2018-05-14T09:55:59.346Z,34.29
2018-05-14T09:57:37.329Z,34.81
2018-05-14T09:59:14.090Z,34.52
2018-05-14T10:00:52.301Z,34.45
2018-05-14T10:02:30.465Z,34.19
2018-05-14T10:04:07.909Z,34.82
2018-05-14T10:05:43.640Z,34.59
2018-05-14T10:07:21.383Z,34.84
2018-05-14T10:08:59.701Z,34.30
2018-05-14T10:10:42.854Z,34.68
2018-05-14T10:12:21.473Z,34.40
2018-05-14T10:13:58.591Z,34.52
2018-05-14T10:15:38.785Z,34.59
2018-05-14T10:17:16.371Z,34.35
2018-05-14T10:18:54.789Z,35.10
2018-05-14T10:20:33.057Z,34.72
2018-05-14T10:22:13.072Z,34.84
2018-05-14T10:23:50.912Z,35.27
2018-05-14T10:25:28.182Z,36.37
2018-05-14T10:27:05.702Z,35.75
2018-05-14T10:28:44.423Z,35.54
2018-05-14T10:30:22.226Z,35.09
2018-05-14T10:32:01.250Z,35.38
2018-05-14T10:33:37.225Z,35.36
2018-05-14T10:35:13.871Z,34.47
2018-05-14T10:36:51.149Z,34.75
2018-05-14T10:38:28.816Z,34.97
2018-05-14T10:40:04.692Z,33.91
2018-05-14T10:41:44.036Z,34.65
2018-05-14T10:43:21.431Z,35.05
2018-05-14T10:44:58.643Z,34.83
2018-05-14T10:46:36.234Z,35.52
2018-05-14T10:48:14.313Z,35.56
2018-05-14T10:49:50.697Z,35.81
2018-05-14T10:51:27.582Z,35.34
2018-05-14T10:53:03.871Z,35.42
2018-05-14T10:54:39.660Z,35.54
2018-05-14T10:56:16.914Z,34.97
2018-05-14T10:57:54.359Z,34.88
2018-05-14T10:59:32.230Z,34.40
2018-05-14T11:01:11.267Z,34.86
2018-05-14T11:02:49.067Z,34.80
2018-05-14T11:04:27.113Z,35.82
2018-05-14T11:06:07.128Z,35.94
2018-05-14T11:07:45.599Z,36.16
2018-05-14T11:09:24.180Z,36.19
2018-05-14T11:11:02.861Z,36.03
2018-05-14T11:12:40.988Z,35.97
2018-05-14T11:14:19.269Z,36.54
2018-05-14T11:15:55.977Z,36.51
2018-05-14T11:17:33.313Z,35.92
2018-05-14T11:19:10.609Z,35.98
2018-05-14T11:20:48.092Z,35.83
2018-05-14T11:22:26.109Z,35.59
2018-05-14T11:24:05.126Z,36.16
2018-05-14T11:25:41.434Z,36.30
2018-05-14T11:27:17.865Z,34.85
2018-05-14T11:28:56.534Z,34.91
2018-05-14T11:30:32.931Z,33.84
2018-05-14T11:32:11.726Z,34.37
2018-05-14T11:33:50.153Z,33.42
2018-05-14T11:35:30.819Z,33.19
2018-05-14T11:37:08.413Z,33.40
2018-05-14T11:38:45.289Z,32.95
2018-05-14T11:40:26.478Z,33.56
2018-05-14T11:42:04.971Z,34.15
2018-05-14T11:43:44.712Z,33.00
2018-05-14T11:45:22.933Z,32.41
2018-05-14T11:47:01.305Z,32.76
2018-05-14T11:48:36.575Z,32.38
2018-05-14T11:50:13.846Z,31.23
2018-05-14T11:51:49.846Z,31.52
2018-05-14T11:53:26.774Z,31.07
2018-05-14T11:55:03.851Z,31.12
2018-05-14T11:56:41.641Z,30.81
2018-05-14T11:58:21.121Z,30.91
2018-05-14T11:59:59.416Z,31.95
2018-05-14T12:01:37.835Z,30.85
2018-05-14T12:03:16.276Z,30.30
2018-05-14T12:04:53.906Z,30.24
2018-05-14T12:06:31.838Z,29.96
2018-05-14T12:08:11.570Z,30.28
2018-05-14T12:09:51.077Z,29.49
2018-05-14T12:11:29.755Z,29.03
2018-05-14T12:13:08.570Z,29.20
2018-05-14T12:14:49.799Z,28.65
2018-05-14T12:16:28.279Z,28.93
2018-05-14T12:18:16.428Z,29.35
2018-05-14T12:19:54.886Z,28.28
2018-05-14T12:23:27.861Z,27.70
2018-05-14T12:25:06.332Z,28.30
2018-05-14T12:26:45.012Z,28.67
2018-05-14T12:28:25.343Z,28.71
2018-05-14T12:30:10.240Z,28.37
2018-05-14T12:33:40.510Z,27.48
2018-05-14T13:21:37.706Z,23.12
2018-05-14T13:23:15.426Z,23.03
2018-05-14T13:26:46.144Z,22.98
2018-05-14T13:34:20.067Z,23.47
2018-05-14T13:35:57.432Z,23.58
2018-05-14T13:37:35.341Z,22.52
2018-05-14T13:39:12.009Z,21.96
2018-05-14T13:40:50.754Z,21.55
2018-05-14T13:42:30.132Z,22.06
2018-05-14T13:44:08.625Z,22.71
2018-05-14T13:45:45.993Z,22.80
2018-05-14T13:47:25.042Z,23.45
2018-05-14T13:49:03.824Z,24.01
2018-05-14T13:50:43.289Z,24.40
2018-05-14T13:52:28.704Z,24.67
2018-05-14T13:54:08.252Z,24.40
2018-05-14T13:55:46.537Z,24.60
2018-05-14T13:59:08.963Z,24.75
2018-05-14T14:01:00.207Z,24.75
2018-05-14T14:02:38.661Z,25.42
2018-05-14T14:04:41.312Z,24.97
2018-05-14T14:06:18.437Z,25.24
2018-05-14T14:07:55.445Z,25.60
2018-05-14T14:09:37.149Z,24.96
2018-05-14T14:22:59.669Z,21.10
2018-05-14T14:24:47.417Z,20.83
2018-05-14T14:26:32.322Z,18.46
2018-05-14T14:28:14.590Z,18.55
2018-05-14T14:29:51.794Z,18.33
2018-05-14T14:31:28.894Z,18.13
2018-05-14T14:33:09.198Z,18.11
2018-05-14T14:34:47.924Z,18.50
2018-05-14T14:36:26.022Z,19.08
2018-05-14T14:38:05.459Z,19.19
2018-05-14T14:39:44.555Z,18.91
2018-05-14T14:41:23.075Z,19.17
2018-05-14T14:43:01.396Z,18.70
2018-05-14T14:44:38.399Z,19.25
2018-05-14T14:46:13.963Z,20.08
2018-05-14T14:47:49.040Z,20.17
2018-05-14T14:49:26.727Z,20.41
2018-05-14T14:51:05.025Z,20.31
2018-05-14T14:52:43.352Z,20.60
2018-05-14T14:54:20.516Z,20.38
2018-05-14T14:55:58.286Z,18.88
2018-05-14T14:57:37.952Z,18.67
2018-05-14T14:59:16.328Z,18.56
2018-05-14T15:00:55.697Z,19.74
2018-05-14T15:02:33.890Z,20.12
2018-05-14T15:04:10.571Z,19.69
2018-05-14T15:05:48.268Z,19.84
2018-05-14T15:07:25.094Z,19.89
2018-05-14T15:09:01.977Z,20.30
2018-05-14T15:10:40.859Z,20.60
2018-05-14T15:12:17.857Z,20.28
2018-05-14T15:13:55.746Z,20.72
2018-05-14T15:15:34.756Z,20.94
2018-05-14T15:17:16.512Z,21.11
2018-05-14T15:18:56.588Z,21.25
2018-05-14T15:20:33.856Z,21.27
2018-05-14T15:22:11.575Z,21.12
2018-05-14T15:23:48.818Z,20.58
2018-05-14T15:25:27.274Z,21.29
2018-05-14T15:27:05.904Z,21.94
2018-05-14T15:28:44.224Z,22.36
2018-05-14T15:30:22.276Z,22.35
2018-05-14T15:32:01.104Z,22.54
2018-05-14T15:33:38.827Z,22.67
2018-05-14T15:35:20.228Z,22.84
2018-05-14T15:36:58.325Z,23.06
2018-05-14T15:38:35.614Z,23.15
2018-05-14T15:40:12.381Z,23.46
2018-05-14T15:41:50.496Z,24.00
2018-05-14T15:43:26.751Z,23.31
2018-05-14T15:45:06.377Z,23.00
2018-05-14T15:46:45.899Z,22.81
2018-05-14T15:48:23.365Z,22.03
2018-05-14T15:50:02.905Z,22.27
2018-05-14T15:51:40.287Z,22.67
2018-05-14T15:53:17.724Z,23.02
2018-05-14T15:54:55.048Z,23.37
2018-05-14T15:56:34.405Z,23.40
2018-05-14T15:58:15.290Z,23.80
2018-05-14T15:59:53.868Z,23.84
2018-05-14T16:01:31.172Z,24.07
2018-05-14T16:03:07.929Z,24.46
2018-05-14T16:04:44.052Z,23.61
2018-05-14T16:06:22.682Z,23.36
2018-05-14T16:08:00.875Z,23.41
2018-05-14T16:09:36.672Z,23.63
2018-05-14T16:11:13.652Z,22.97
2018-05-14T16:12:50.666Z,21.96
2018-05-14T16:14:30.410Z,22.90
2018-05-14T16:16:10.188Z,22.92
2018-05-14T16:17:47.599Z,22.87
2018-05-14T16:19:26.088Z,22.80
2018-05-14T16:21:04.074Z,22.35
2018-05-14T16:22:42.378Z,22.88
2018-05-14T16:24:26.136Z,23.17
2018-05-14T16:26:04.447Z,23.75
2018-05-14T16:27:42.928Z,23.75
2018-05-14T16:29:20.795Z,24.13
2018-05-14T16:30:58.446Z,24.72
2018-05-14T16:32:37.664Z,24.10
2018-05-14T16:34:13.757Z,24.64
2018-05-14T16:35:50.748Z,24.42
2018-05-14T16:37:30.890Z,24.90
2018-05-14T16:39:10.237Z,23.97
2018-05-14T16:40:46.462Z,23.95
2018-05-14T16:42:26.434Z,24.51
2018-05-14T16:44:16.430Z,24.71
2018-05-14T16:45:54.602Z,25.11
2018-05-14T16:47:32.352Z,25.40
2018-05-14T16:49:11.345Z,25.59
2018-05-14T16:50:46.913Z,25.54
2018-05-14T16:52:25.006Z,25.76
2018-05-14T16:54:04.252Z,26.05
2018-05-14T16:55:42.604Z,26.25
2018-05-14T16:57:19.808Z,26.42
2018-05-14T16:59:01.200Z,26.63
2018-05-14T17:00:40.222Z,26.68
2018-05-14T17:02:17.031Z,26.64
2018-05-14T17:03:55.740Z,26.87
2018-05-14T17:05:34.023Z,27.03
2018-05-14T17:07:12.323Z,27.19
2018-05-14T17:08:51.162Z,27.12
2018-05-14T17:10:30.389Z,27.18
2018-05-14T17:12:10.467Z,27.37
2018-05-14T17:13:51.107Z,27.47
2018-05-14T17:15:28.451Z,27.88
2018-05-14T17:17:08.292Z,27.66
2018-05-14T17:18:47.381Z,27.41
2018-05-14T17:20:23.761Z,27.93
2018-05-14T17:22:01.858Z,27.91
2018-05-14T17:23:38.953Z,28.08
2018-05-14T17:25:17.050Z,28.19
2018-05-14T17:26:53.969Z,28.03
2018-05-14T17:28:31.513Z,28.14
2018-05-14T17:30:10.919Z,28.27
2018-05-14T17:31:47.914Z,28.57
2018-05-14T17:33:25.278Z,28.73
2018-05-14T17:35:01.229Z,28.97
2018-05-14T17:36:39.311Z,29.12
2018-05-14T17:38:16.381Z,29.10
2018-05-14T17:39:55.179Z,29.28
2018-05-14T17:41:33.354Z,29.63
2018-05-14T17:43:14.480Z,29.66
2018-05-14T17:44:51.739Z,29.89
2018-05-14T17:46:28.758Z,30.16
2018-05-14T17:48:08.806Z,30.37
2018-05-14T17:49:48.168Z,30.24
2018-05-14T17:51:26.293Z,30.10
2018-05-14T17:53:01.996Z,30.24
2018-05-14T17:54:38.601Z,30.11
2018-05-14T17:56:16.339Z,30.73
2018-05-14T17:58:18.999Z,30.28
2018-05-14T18:00:01.110Z,30.50
2018-05-14T18:01:39.459Z,30.62
2018-05-14T18:03:24.499Z,30.78
2018-05-14T18:07:10.297Z,31.13
2018-05-14T18:08:55.359Z,31.26
2018-05-14T18:10:33.983Z,31.25
2018-05-14T18:12:10.181Z,31.39
2018-05-14T18:13:46.791Z,31.61
2018-05-14T18:15:25.371Z,31.84
2018-05-14T18:17:05.113Z,32.43
2018-05-14T18:18:45.883Z,32.47
2018-05-14T18:20:31.207Z,32.79
2018-05-14T18:35:00.868Z,34.11
2018-05-14T18:36:41.804Z,34.31
2018-05-14T18:38:21.307Z,34.67
2018-05-14T18:39:58.336Z,34.78
2018-05-14T18:41:36.801Z,34.99
2018-05-14T18:43:14.796Z,35.20
2018-05-14T18:44:53.541Z,35.37
2018-05-14T18:46:30.877Z,35.36
2018-05-14T18:48:10.527Z,35.82
2018-05-14T18:49:47.717Z,35.79
2018-05-14T18:51:25.090Z,35.91
2018-05-14T18:53:02.725Z,36.12
2018-05-14T18:54:41.429Z,36.28
2018-05-14T18:56:22.244Z,36.31
2018-05-14T18:57:59.665Z,36.61
2018-05-14T18:59:36.995Z,36.80
2018-05-14T19:01:19.749Z,37.08
2018-05-14T19:03:02.484Z,37.03
2018-05-14T19:04:47.284Z,37.52
2018-05-14T19:06:30.104Z,37.48
2018-05-14T19:08:12.819Z,37.83
2018-05-14T19:09:52.858Z,37.73
2018-05-14T19:11:41.451Z,37.84
2018-05-14T19:13:28.510Z,38.34
2018-05-14T19:17:09.822Z,37.93
2018-05-14T19:20:33.442Z,38.00
2018-05-14T19:22:22.534Z,38.19
2018-05-14T19:24:13.376Z,38.16
2018-05-14T19:25:54.732Z,38.33
2018-05-14T19:27:39.960Z,38.08
2018-05-14T19:29:23.435Z,38.11
2018-05-14T19:31:02.958Z,37.91
2018-05-14T19:32:42.104Z,37.83
2018-05-14T19:34:27.300Z,37.86
2018-05-14T19:36:08.013Z,37.73
2018-05-14T19:37:46.588Z,37.80
2018-05-14T19:41:43.144Z,37.98
2018-05-14T19:43:18.219Z,37.92
2018-05-14T19:44:53.738Z,38.37
2018-05-14T19:46:29.630Z,38.15
2018-05-14T19:48:06.196Z,38.47
2018-05-14T19:49:41.358Z,38.35
2018-05-14T19:51:16.546Z,38.58
2018-05-14T19:52:51.648Z,38.92
2018-05-14T19:54:28.845Z,38.67
2018-05-14T19:56:06.092Z,38.73
2018-05-14T19:57:42.167Z,38.57
2018-05-14T19:59:18.275Z,38.92
2018-05-14T20:00:55.183Z,39.35
2018-05-14T20:02:31.980Z,39.00
2018-05-14T20:04:07.863Z,38.92
2018-05-14T20:05:44.010Z,39.04
2018-05-14T20:07:19.962Z,38.91
2018-05-14T20:08:55.527Z,38.62
2018-05-14T20:10:31.281Z,38.80
2018-05-14T20:12:07.289Z,38.96
2018-05-14T20:13:42.758Z,38.82
2018-05-14T20:15:17.850Z,38.84
2018-05-14T20:16:52.946Z,38.84
2018-05-14T20:18:28.915Z,38.98
2018-05-14T20:20:06.628Z,39.87
2018-05-14T20:21:41.665Z,39.06
2018-05-14T20:23:18.134Z,39.92
2018-05-14T20:24:54.882Z,39.19
2018-05-14T20:26:30.442Z,39.35
2018-05-14T20:28:05.984Z,39.30
2018-05-14T20:29:41.825Z,39.41
2018-05-14T20:31:16.941Z,39.50
2018-05-14T20:32:52.002Z,39.72
2018-05-14T20:34:27.657Z,40.34
2018-05-14T20:36:03.552Z,40.30
2018-05-14T20:37:39.905Z,40.16
2018-05-14T20:39:15.285Z,40.31
2018-05-14T20:40:50.501Z,40.32
2018-05-14T20:42:25.611Z,40.78
2018-05-14T20:44:00.688Z,40.69
2018-05-14T20:45:36.413Z,41.16
2018-05-14T20:47:13.813Z,41.03
2018-05-14T20:48:55.161Z,41.61
2018-05-14T20:50:30.623Z,41.26
2018-05-14T20:52:05.994Z,41.29
2018-05-14T20:53:41.044Z,41.47
2018-05-14T20:55:16.109Z,41.46
2018-05-14T20:56:52.417Z,41.64
2018-05-14T20:58:27.489Z,41.67
2018-05-14T21:00:03.799Z,42.03
2018-05-14T21:01:38.965Z,41.79
2018-05-14T21:03:14.232Z,41.99
2018-05-14T21:04:49.344Z,42.23
2018-05-14T21:06:24.414Z,42.10
2018-05-14T21:08:01.301Z,42.60
2018-05-14T21:09:36.386Z,42.49
2018-05-14T21:11:11.467Z,42.58
2018-05-14T21:12:46.562Z,42.94
2018-05-14T21:14:22.939Z,42.70
2018-05-14T21:15:58.024Z,43.00
2018-05-14T21:17:34.300Z,43.06
2018-05-14T21:19:09.405Z,43.10
2018-05-14T21:20:45.417Z,43.29
2018-05-14T21:22:20.513Z,43.34
2018-05-14T21:23:55.600Z,43.64
2018-05-14T21:25:31.780Z,44.13
2018-05-14T21:27:06.889Z,43.77
2018-05-14T21:28:42.265Z,43.79
2018-05-14T21:30:17.350Z,43.74
2018-05-14T21:31:52.444Z,44.03
2018-05-14T21:33:27.556Z,43.86
2018-05-14T21:35:03.888Z,44.06
2018-05-14T21:36:39.132Z,44.26
2018-05-14T21:38:14.190Z,44.29
2018-05-14T21:39:49.305Z,44.34
2018-05-14T21:41:24.368Z,44.35
2018-05-14T21:43:00.208Z,44.53
2018-05-14T21:44:35.364Z,44.43
2018-05-14T21:46:10.539Z,44.62
2018-05-14T21:47:45.611Z,44.92
2018-05-14T21:49:20.687Z,44.89
2018-05-14T21:50:56.141Z,45.16
2018-05-14T21:52:31.250Z,44.90
2018-05-14T21:54:06.888Z,45.59
2018-05-14T21:55:41.968Z,44.93
2018-05-14T21:57:17.843Z,45.03
2018-05-14T21:58:53.685Z,44.77
2018-05-14T22:00:28.762Z,45.05
2018-05-14T22:02:05.135Z,45.13
2018-05-14T22:03:40.786Z,45.31
2018-05-14T22:05:16.720Z,45.39
2018-05-14T22:06:56.981Z,45.37
2018-05-14T22:08:32.431Z,45.49
2018-05-14T22:10:07.475Z,45.56
2018-05-14T22:11:42.533Z,45.76
2018-05-14T22:13:17.649Z,45.82
2018-05-14T22:14:52.728Z,45.95
2018-05-14T22:16:28.087Z,45.98
2018-05-14T22:18:05.627Z,46.11
2018-05-14T22:19:41.659Z,46.19
2018-05-14T22:21:17.556Z,45.96
2018-05-14T22:22:54.553Z,46.21
2018-05-14T22:24:29.683Z,46.05
2018-05-14T22:26:05.505Z,46.06
2018-05-14T22:27:40.602Z,46.03
2018-05-14T22:29:15.735Z,45.92
2018-05-14T22:30:51.745Z,46.09
2018-05-14T22:32:27.854Z,46.16
2018-05-14T22:34:04.373Z,45.99
2018-05-14T22:35:40.073Z,46.00
2018-05-14T22:37:15.144Z,46.00
2018-05-14T22:38:50.240Z,45.90
2018-05-14T22:40:25.326Z,46.08
2018-05-14T22:42:02.302Z,46.31